sensor_id;sensor_type;location;lat;lon;timestamp;temperature;humidity
6810;DHT22;3443;48.812;9.112;2023-05-24T00:00:55;13.80;99.90
6810;DHT22;3443;48.812;9.112;2023-05-24T00:03:21;13.80;99.90
6810;DHT22;3443;48.812;9.112;2023-05-24T00:05:47;13.60;99.90
6810;DHT22;3443;48.812;9.112;2023-05-24T00:10:41;13.40;99.90
6810;DHT22;3443;48.812;9.112;2023-05-24T00:13:06;13.60;99.90
6810;DHT22;3443;48.812;9.112;2023-05-24T00:17:58;13.70;99.90
6810;DHT22;3443;48.812;9.112;2023-05-24T00:20:23;13.70;99.90
6810;DHT22;3443;48.812;9.112;2023-05-24T00:22:49;13.50;99.90
6810;DHT22;3443;48.812;9.112;2023-05-24T00:25:15;13.40;99.90
6810;DHT22;3443;48.812;9.112;2023-05-24T00:27:41;13.50;99.90
6810;DHT22;3443;48.812;9.112;2023-05-24T00:30:07;13.40;99.90
6810;DHT22;3443;48.812;9.112;2023-05-24T00:32:33;13.50;99.90
6810;DHT22;3443;48.812;9.112;2023-05-24T00:34:58;13.60;99.90
6810;DHT22;3443;48.812;9.112;2023-05-24T00:37:24;13.60;99.90
6810;DHT22;3443;48.812;9.112;2023-05-24T00:39:50;13.60;99.90
6810;DHT22;3443;48.812;9.112;2023-05-24T00:42:16;13.60;99.90
6810;DHT22;3443;48.812;9.112;2023-05-24T00:44:41;13.60;99.90
6810;DHT22;3443;48.812;9.112;2023-05-24T00:47:07;13.50;99.90
6810;DHT22;3443;48.812;9.112;2023-05-24T00:49:33;13.40;99.90
6810;DHT22;3443;48.812;9.112;2023-05-24T00:51:59;13.50;99.90
6810;DHT22;3443;48.812;9.112;2023-05-24T00:54:25;13.60;99.90
6810;DHT22;3443;48.812;9.112;2023-05-24T00:56:52;13.60;99.90
6810;DHT22;3443;48.812;9.112;2023-05-24T00:59:19;13.80;99.90
6810;DHT22;3443;48.812;9.112;2023-05-24T01:01:44;13.70;99.90
6810;DHT22;3443;48.812;9.112;2023-05-24T01:04:12;13.70;99.90
6810;DHT22;3443;48.812;9.112;2023-05-24T01:12:35;13.90;99.90
6810;DHT22;3443;48.812;9.112;2023-05-24T01:15:11;13.90;99.90
6810;DHT22;3443;48.812;9.112;2023-05-24T01:17:48;13.80;99.90
6810;DHT22;3443;48.812;9.112;2023-05-24T01:20:16;13.70;99.90
6810;DHT22;3443;48.812;9.112;2023-05-24T01:35:22;13.60;99.90
6810;DHT22;3443;48.812;9.112;2023-05-24T01:40:13;13.70;99.90
6810;DHT22;3443;48.812;9.112;2023-05-24T01:42:44;13.80;99.90
6810;DHT22;3443;48.812;9.112;2023-05-24T01:51:00;13.80;99.90
6810;DHT22;3443;48.812;9.112;2023-05-24T01:53:31;13.80;99.90
6810;DHT22;3443;48.812;9.112;2023-05-24T01:56:00;13.60;99.90
6810;DHT22;3443;48.812;9.112;2023-05-24T01:58:27;13.40;99.90
6810;DHT22;3443;48.812;9.112;2023-05-24T02:00:54;13.30;99.90
6810;DHT22;3443;48.812;9.112;2023-05-24T02:03:20;13.30;99.90
6810;DHT22;3443;48.812;9.112;2023-05-24T02:05:46;13.30;99.90
6810;DHT22;3443;48.812;9.112;2023-05-24T02:08:12;13.20;99.90
6810;DHT22;3443;48.812;9.112;2023-05-24T02:10:39;13.30;99.90
6810;DHT22;3443;48.812;9.112;2023-05-24T02:13:05;13.20;99.90
6810;DHT22;3443;48.812;9.112;2023-05-24T02:15:31;13.20;99.90
6810;DHT22;3443;48.812;9.112;2023-05-24T02:17:57;13.30;99.90
6810;DHT22;3443;48.812;9.112;2023-05-24T02:20:23;13.20;99.90
6810;DHT22;3443;48.812;9.112;2023-05-24T02:22:49;13.10;99.90
6810;DHT22;3443;48.812;9.112;2023-05-24T02:25:15;13.10;99.90
6810;DHT22;3443;48.812;9.112;2023-05-24T02:27:41;13.00;99.90
6810;DHT22;3443;48.812;9.112;2023-05-24T02:30:07;13.00;99.90
6810;DHT22;3443;48.812;9.112;2023-05-24T02:32:33;12.90;99.90
6810;DHT22;3443;48.812;9.112;2023-05-24T02:34:59;12.90;99.90
6810;DHT22;3443;48.812;9.112;2023-05-24T02:37:26;12.90;99.90
6810;DHT22;3443;48.812;9.112;2023-05-24T02:39:52;12.90;99.90
6810;DHT22;3443;48.812;9.112;2023-05-24T02:42:18;12.90;99.90
6810;DHT22;3443;48.812;9.112;2023-05-24T02:44:43;13.00;99.90
6810;DHT22;3443;48.812;9.112;2023-05-24T02:47:12;13.00;99.90
6810;DHT22;3443;48.812;9.112;2023-05-24T02:49:38;13.00;99.90
6810;DHT22;3443;48.812;9.112;2023-05-24T02:52:05;13.00;99.90
6810;DHT22;3443;48.812;9.112;2023-05-24T02:54:31;12.90;99.90
6810;DHT22;3443;48.812;9.112;2023-05-24T02:56:56;12.70;99.90
6810;DHT22;3443;48.812;9.112;2023-05-24T02:59:23;12.60;99.90
6810;DHT22;3443;48.812;9.112;2023-05-24T03:01:48;12.60;99.90
6810;DHT22;3443;48.812;9.112;2023-05-24T03:04:14;12.50;99.90
6810;DHT22;3443;48.812;9.112;2023-05-24T03:06:39;12.40;99.90
6810;DHT22;3443;48.812;9.112;2023-05-24T03:09:05;12.50;99.90
6810;DHT22;3443;48.812;9.112;2023-05-24T03:11:31;12.50;99.90
6810;DHT22;3443;48.812;9.112;2023-05-24T03:13:56;12.60;99.90
6810;DHT22;3443;48.812;9.112;2023-05-24T03:16:22;12.70;99.90
6810;DHT22;3443;48.812;9.112;2023-05-24T03:18:47;12.80;99.90
6810;DHT22;3443;48.812;9.112;2023-05-24T03:21:15;12.80;99.90
6810;DHT22;3443;48.812;9.112;2023-05-24T03:23:41;12.70;99.90
6810;DHT22;3443;48.812;9.112;2023-05-24T03:26:07;12.60;99.90
6810;DHT22;3443;48.812;9.112;2023-05-24T03:28:32;12.30;99.90
6810;DHT22;3443;48.812;9.112;2023-05-24T03:30:58;12.30;99.90
6810;DHT22;3443;48.812;9.112;2023-05-24T03:33:24;12.30;99.90
6810;DHT22;3443;48.812;9.112;2023-05-24T03:35:50;12.40;99.90
6810;DHT22;3443;48.812;9.112;2023-05-24T03:38:15;12.50;99.90
6810;DHT22;3443;48.812;9.112;2023-05-24T03:40:41;12.40;99.90
6810;DHT22;3443;48.812;9.112;2023-05-24T03:43:06;12.30;99.90
6810;DHT22;3443;48.812;9.112;2023-05-24T03:45:32;12.30;99.90
6810;DHT22;3443;48.812;9.112;2023-05-24T03:47:58;12.30;99.90
6810;DHT22;3443;48.812;9.112;2023-05-24T03:50:23;12.40;99.90
6810;DHT22;3443;48.812;9.112;2023-05-24T03:52:49;12.40;99.90
6810;DHT22;3443;48.812;9.112;2023-05-24T03:55:15;12.50;99.90
6810;DHT22;3443;48.812;9.112;2023-05-24T03:57:40;12.50;99.90
6810;DHT22;3443;48.812;9.112;2023-05-24T04:00:07;12.50;99.90
6810;DHT22;3443;48.812;9.112;2023-05-24T04:02:34;12.40;99.90
6810;DHT22;3443;48.812;9.112;2023-05-24T04:05:02;12.40;99.90
6810;DHT22;3443;48.812;9.112;2023-05-24T04:07:28;12.40;99.90
6810;DHT22;3443;48.812;9.112;2023-05-24T04:09:54;12.40;99.90
6810;DHT22;3443;48.812;9.112;2023-05-24T04:12:19;12.50;99.90
6810;DHT22;3443;48.812;9.112;2023-05-24T04:14:45;12.50;99.90
6810;DHT22;3443;48.812;9.112;2023-05-24T04:17:10;12.50;99.90
6810;DHT22;3443;48.812;9.112;2023-05-24T04:19:36;12.50;99.90
6810;DHT22;3443;48.812;9.112;2023-05-24T04:22:02;12.60;99.90
6810;DHT22;3443;48.812;9.112;2023-05-24T04:24:27;12.60;99.90
6810;DHT22;3443;48.812;9.112;2023-05-24T04:26:53;12.40;99.90
6810;DHT22;3443;48.812;9.112;2023-05-24T04:29:19;12.20;99.90
6810;DHT22;3443;48.812;9.112;2023-05-24T04:31:44;12.10;99.90
6810;DHT22;3443;48.812;9.112;2023-05-24T04:34:10;12.20;99.90
6810;DHT22;3443;48.812;9.112;2023-05-24T04:36:38;12.10;99.90
6810;DHT22;3443;48.812;9.112;2023-05-24T04:39:04;12.10;99.90
6810;DHT22;3443;48.812;9.112;2023-05-24T04:41:30;12.20;99.90
6810;DHT22;3443;48.812;9.112;2023-05-24T04:44:03;12.20;99.90
6810;DHT22;3443;48.812;9.112;2023-05-24T04:46:28;12.30;99.90
6810;DHT22;3443;48.812;9.112;2023-05-24T04:48:54;12.40;99.90
6810;DHT22;3443;48.812;9.112;2023-05-24T04:51:21;12.40;99.90
6810;DHT22;3443;48.812;9.112;2023-05-24T04:53:47;12.60;99.90
6810;DHT22;3443;48.812;9.112;2023-05-24T04:56:12;12.50;99.90
6810;DHT22;3443;48.812;9.112;2023-05-24T04:58:39;12.60;99.90
6810;DHT22;3443;48.812;9.112;2023-05-24T05:01:05;12.50;99.90
6810;DHT22;3443;48.812;9.112;2023-05-24T05:03:31;12.30;99.90
6810;DHT22;3443;48.812;9.112;2023-05-24T05:05:57;12.30;99.90
6810;DHT22;3443;48.812;9.112;2023-05-24T05:08:23;12.40;99.90
6810;DHT22;3443;48.812;9.112;2023-05-24T05:10:49;12.40;99.90
6810;DHT22;3443;48.812;9.112;2023-05-24T05:13:15;12.30;99.90
6810;DHT22;3443;48.812;9.112;2023-05-24T05:15:40;12.20;99.90
6810;DHT22;3443;48.812;9.112;2023-05-24T05:18:06;12.10;99.90
6810;DHT22;3443;48.812;9.112;2023-05-24T05:20:31;12.10;99.90
6810;DHT22;3443;48.812;9.112;2023-05-24T05:22:57;12.20;99.90
6810;DHT22;3443;48.812;9.112;2023-05-24T05:25:22;12.10;99.90
6810;DHT22;3443;48.812;9.112;2023-05-24T05:27:48;12.10;99.90
6810;DHT22;3443;48.812;9.112;2023-05-24T05:30:14;12.00;99.90
6810;DHT22;3443;48.812;9.112;2023-05-24T05:32:39;12.00;99.90
6810;DHT22;3443;48.812;9.112;2023-05-24T05:35:05;11.80;99.90
6810;DHT22;3443;48.812;9.112;2023-05-24T05:37:31;11.70;99.90
6810;DHT22;3443;48.812;9.112;2023-05-24T05:39:56;11.60;99.90
6810;DHT22;3443;48.812;9.112;2023-05-24T05:42:22;11.60;99.90
6810;DHT22;3443;48.812;9.112;2023-05-24T05:44:48;11.70;99.90
6810;DHT22;3443;48.812;9.112;2023-05-24T05:47:13;11.70;99.90
6810;DHT22;3443;48.812;9.112;2023-05-24T05:49:39;11.70;99.90
6810;DHT22;3443;48.812;9.112;2023-05-24T05:52:04;11.90;99.90
6810;DHT22;3443;48.812;9.112;2023-05-24T05:54:30;12.00;99.90
6810;DHT22;3443;48.812;9.112;2023-05-24T05:56:56;12.10;99.90
6810;DHT22;3443;48.812;9.112;2023-05-24T05:59:22;12.10;99.90
6810;DHT22;3443;48.812;9.112;2023-05-24T06:01:48;12.10;99.90
6810;DHT22;3443;48.812;9.112;2023-05-24T06:04:14;12.10;99.90
6810;DHT22;3443;48.812;9.112;2023-05-24T06:06:40;12.00;99.90
6810;DHT22;3443;48.812;9.112;2023-05-24T06:09:06;12.00;99.90
6810;DHT22;3443;48.812;9.112;2023-05-24T06:11:31;12.20;99.90
6810;DHT22;3443;48.812;9.112;2023-05-24T06:13:57;12.20;99.90
6810;DHT22;3443;48.812;9.112;2023-05-24T06:16:23;12.00;99.90
6810;DHT22;3443;48.812;9.112;2023-05-24T06:18:48;12.10;99.90
6810;DHT22;3443;48.812;9.112;2023-05-24T06:21:14;12.10;99.90
6810;DHT22;3443;48.812;9.112;2023-05-24T06:23:40;12.20;99.90
6810;DHT22;3443;48.812;9.112;2023-05-24T06:26:06;12.20;99.90
6810;DHT22;3443;48.812;9.112;2023-05-24T06:28:35;12.40;99.90
6810;DHT22;3443;48.812;9.112;2023-05-24T06:31:04;12.60;99.90
6810;DHT22;3443;48.812;9.112;2023-05-24T06:33:30;12.60;99.90
6810;DHT22;3443;48.812;9.112;2023-05-24T06:35:56;12.60;99.90
6810;DHT22;3443;48.812;9.112;2023-05-24T06:38:22;12.60;99.90
6810;DHT22;3443;48.812;9.112;2023-05-24T06:40:48;12.70;99.90
6810;DHT22;3443;48.812;9.112;2023-05-24T06:43:13;12.80;99.90
6810;DHT22;3443;48.812;9.112;2023-05-24T06:45:39;12.90;99.90
6810;DHT22;3443;48.812;9.112;2023-05-24T06:48:05;12.80;99.90
6810;DHT22;3443;48.812;9.112;2023-05-24T06:50:30;12.60;99.90
6810;DHT22;3443;48.812;9.112;2023-05-24T06:52:56;12.60;99.90
6810;DHT22;3443;48.812;9.112;2023-05-24T06:55:22;12.80;99.90
6810;DHT22;3443;48.812;9.112;2023-05-24T06:57:47;12.80;99.90
6810;DHT22;3443;48.812;9.112;2023-05-24T07:00:13;12.40;99.90
6810;DHT22;3443;48.812;9.112;2023-05-24T07:02:39;12.30;99.90
6810;DHT22;3443;48.812;9.112;2023-05-24T07:05:05;12.30;99.90
6810;DHT22;3443;48.812;9.112;2023-05-24T07:07:39;12.30;99.90
6810;DHT22;3443;48.812;9.112;2023-05-24T07:10:09;12.40;99.90
6810;DHT22;3443;48.812;9.112;2023-05-24T07:12:36;12.50;99.90
6810;DHT22;3443;48.812;9.112;2023-05-24T07:15:06;12.30;99.90
6810;DHT22;3443;48.812;9.112;2023-05-24T07:17:32;12.30;99.90
6810;DHT22;3443;48.812;9.112;2023-05-24T07:19:59;12.20;99.90
6810;DHT22;3443;48.812;9.112;2023-05-24T07:22:25;12.20;99.90
6810;DHT22;3443;48.812;9.112;2023-05-24T07:24:53;12.40;99.90
6810;DHT22;3443;48.812;9.112;2023-05-24T07:27:19;12.40;99.90
6810;DHT22;3443;48.812;9.112;2023-05-24T07:29:44;12.40;99.90
6810;DHT22;3443;48.812;9.112;2023-05-24T07:32:10;12.40;99.90
6810;DHT22;3443;48.812;9.112;2023-05-24T07:34:36;12.50;99.90
6810;DHT22;3443;48.812;9.112;2023-05-24T07:37:03;12.50;99.90
6810;DHT22;3443;48.812;9.112;2023-05-24T07:39:29;12.30;99.90
6810;DHT22;3443;48.812;9.112;2023-05-24T07:41:55;12.20;99.90
6810;DHT22;3443;48.812;9.112;2023-05-24T07:44:20;12.10;99.90
6810;DHT22;3443;48.812;9.112;2023-05-24T07:46:46;12.30;99.90
6810;DHT22;3443;48.812;9.112;2023-05-24T07:49:12;12.40;99.90
6810;DHT22;3443;48.812;9.112;2023-05-24T07:51:38;12.70;99.90
6810;DHT22;3443;48.812;9.112;2023-05-24T07:54:03;12.80;99.90
6810;DHT22;3443;48.812;9.112;2023-05-24T07:56:29;13.10;99.90
6810;DHT22;3443;48.812;9.112;2023-05-24T07:58:56;13.20;99.90
6810;DHT22;3443;48.812;9.112;2023-05-24T08:01:28;13.30;99.90
6810;DHT22;3443;48.812;9.112;2023-05-24T08:03:54;13.40;99.90
6810;DHT22;3443;48.812;9.112;2023-05-24T08:06:20;13.60;99.90
6810;DHT22;3443;48.812;9.112;2023-05-24T08:08:47;13.60;99.90
6810;DHT22;3443;48.812;9.112;2023-05-24T08:11:12;13.60;99.90
6810;DHT22;3443;48.812;9.112;2023-05-24T08:13:38;13.60;99.90
6810;DHT22;3443;48.812;9.112;2023-05-24T08:16:03;13.50;99.90
6810;DHT22;3443;48.812;9.112;2023-05-24T08:18:29;13.40;99.90
6810;DHT22;3443;48.812;9.112;2023-05-24T08:20:55;13.50;99.90
6810;DHT22;3443;48.812;9.112;2023-05-24T08:23:21;13.50;99.90
6810;DHT22;3443;48.812;9.112;2023-05-24T08:25:47;13.50;99.90
6810;DHT22;3443;48.812;9.112;2023-05-24T08:28:12;13.50;99.90
6810;DHT22;3443;48.812;9.112;2023-05-24T08:30:38;13.60;99.90
6810;DHT22;3443;48.812;9.112;2023-05-24T08:33:03;13.60;99.90
6810;DHT22;3443;48.812;9.112;2023-05-24T08:35:29;13.60;99.90
6810;DHT22;3443;48.812;9.112;2023-05-24T08:37:55;13.80;99.90
6810;DHT22;3443;48.812;9.112;2023-05-24T08:40:20;14.00;99.90
6810;DHT22;3443;48.812;9.112;2023-05-24T08:42:49;14.00;99.90
6810;DHT22;3443;48.812;9.112;2023-05-24T08:45:17;13.70;99.90
6810;DHT22;3443;48.812;9.112;2023-05-24T08:47:43;13.70;99.90
6810;DHT22;3443;48.812;9.112;2023-05-24T08:50:11;13.50;99.90
6810;DHT22;3443;48.812;9.112;2023-05-24T08:52:37;13.50;99.90
6810;DHT22;3443;48.812;9.112;2023-05-24T08:55:04;13.60;99.90
6810;DHT22;3443;48.812;9.112;2023-05-24T08:57:30;13.60;99.90
6810;DHT22;3443;48.812;9.112;2023-05-24T08:59:57;13.60;99.90
6810;DHT22;3443;48.812;9.112;2023-05-24T09:02:23;13.60;99.90
6810;DHT22;3443;48.812;9.112;2023-05-24T09:04:50;13.60;99.90
6810;DHT22;3443;48.812;9.112;2023-05-24T09:07:18;13.40;99.90
6810;DHT22;3443;48.812;9.112;2023-05-24T09:09:52;13.30;99.90
6810;DHT22;3443;48.812;9.112;2023-05-24T09:12:20;13.30;99.90
6810;DHT22;3443;48.812;9.112;2023-05-24T09:14:46;13.30;99.90
6810;DHT22;3443;48.812;9.112;2023-05-24T09:17:12;13.30;99.90
6810;DHT22;3443;48.812;9.112;2023-05-24T09:19:43;13.30;99.90
6810;DHT22;3443;48.812;9.112;2023-05-24T09:22:12;13.40;99.90
6810;DHT22;3443;48.812;9.112;2023-05-24T09:24:42;13.20;99.90
6810;DHT22;3443;48.812;9.112;2023-05-24T09:27:07;13.30;99.90
6810;DHT22;3443;48.812;9.112;2023-05-24T09:29:36;13.40;99.90
6810;DHT22;3443;48.812;9.112;2023-05-24T09:32:03;13.60;99.90
6810;DHT22;3443;48.812;9.112;2023-05-24T09:34:41;13.70;99.90
6810;DHT22;3443;48.812;9.112;2023-05-24T09:37:15;13.70;99.90
6810;DHT22;3443;48.812;9.112;2023-05-24T09:39:44;13.70;99.90
6810;DHT22;3443;48.812;9.112;2023-05-24T09:42:23;13.60;99.90
6810;DHT22;3443;48.812;9.112;2023-05-24T09:45:00;13.60;99.90
6810;DHT22;3443;48.812;9.112;2023-05-24T09:47:30;13.40;99.90
6810;DHT22;3443;48.812;9.112;2023-05-24T09:49:56;13.30;99.90
6810;DHT22;3443;48.812;9.112;2023-05-24T09:52:21;13.20;99.90
6810;DHT22;3443;48.812;9.112;2023-05-24T09:54:47;13.20;99.90
6810;DHT22;3443;48.812;9.112;2023-05-24T09:57:16;13.10;99.90
6810;DHT22;3443;48.812;9.112;2023-05-24T09:59:41;13.20;99.90
6810;DHT22;3443;48.812;9.112;2023-05-24T10:02:09;13.10;99.90
6810;DHT22;3443;48.812;9.112;2023-05-24T10:04:36;13.10;99.90
6810;DHT22;3443;48.812;9.112;2023-05-24T10:07:07;13.10;99.90
6810;DHT22;3443;48.812;9.112;2023-05-24T10:09:34;13.00;99.90
6810;DHT22;3443;48.812;9.112;2023-05-24T10:12:05;13.20;99.90
6810;DHT22;3443;48.812;9.112;2023-05-24T10:14:32;13.30;99.90
6810;DHT22;3443;48.812;9.112;2023-05-24T10:16:59;13.30;99.90
6810;DHT22;3443;48.812;9.112;2023-05-24T10:19:24;13.30;99.90
6810;DHT22;3443;48.812;9.112;2023-05-24T10:21:52;13.30;99.90
6810;DHT22;3443;48.812;9.112;2023-05-24T10:24:20;13.30;99.90
6810;DHT22;3443;48.812;9.112;2023-05-24T10:26:49;13.30;99.90
6810;DHT22;3443;48.812;9.112;2023-05-24T10:29:35;13.30;99.90
6810;DHT22;3443;48.812;9.112;2023-05-24T10:32:06;13.30;99.90
6810;DHT22;3443;48.812;9.112;2023-05-24T10:34:33;13.30;99.90
6810;DHT22;3443;48.812;9.112;2023-05-24T10:36:59;13.40;99.90
6810;DHT22;3443;48.812;9.112;2023-05-24T10:39:26;13.60;99.90
6810;DHT22;3443;48.812;9.112;2023-05-24T10:41:55;13.70;99.90
6810;DHT22;3443;48.812;9.112;2023-05-24T10:44:21;13.80;99.90
6810;DHT22;3443;48.812;9.112;2023-05-24T10:47:11;14.00;99.90
6810;DHT22;3443;48.812;9.112;2023-05-24T10:49:46;14.00;99.90
6810;DHT22;3443;48.812;9.112;2023-05-24T10:52:12;14.10;99.90
6810;DHT22;3443;48.812;9.112;2023-05-24T10:54:38;14.20;99.90
6810;DHT22;3443;48.812;9.112;2023-05-24T10:57:05;14.30;99.90
6810;DHT22;3443;48.812;9.112;2023-05-24T10:59:33;14.50;99.90
6810;DHT22;3443;48.812;9.112;2023-05-24T11:02:02;14.50;99.90
6810;DHT22;3443;48.812;9.112;2023-05-24T11:04:36;14.50;99.90
6810;DHT22;3443;48.812;9.112;2023-05-24T11:07:06;14.30;99.90
6810;DHT22;3443;48.812;9.112;2023-05-24T11:09:36;14.30;99.90
6810;DHT22;3443;48.812;9.112;2023-05-24T11:12:06;14.50;99.90
6810;DHT22;3443;48.812;9.112;2023-05-24T11:14:36;14.70;99.90
6810;DHT22;3443;48.812;9.112;2023-05-24T11:17:02;15.00;99.90
6810;DHT22;3443;48.812;9.112;2023-05-24T11:19:48;15.30;99.90
6810;DHT22;3443;48.812;9.112;2023-05-24T11:22:17;15.50;99.90
6810;DHT22;3443;48.812;9.112;2023-05-24T11:24:44;15.80;99.90
6810;DHT22;3443;48.812;9.112;2023-05-24T11:27:11;15.80;99.90
6810;DHT22;3443;48.812;9.112;2023-05-24T11:29:41;15.50;99.90
6810;DHT22;3443;48.812;9.112;2023-05-24T11:32:07;15.50;99.90
6810;DHT22;3443;48.812;9.112;2023-05-24T11:34:33;15.50;99.90
6810;DHT22;3443;48.812;9.112;2023-05-24T11:37:00;15.50;99.90
6810;DHT22;3443;48.812;9.112;2023-05-24T11:39:33;15.50;99.90
6810;DHT22;3443;48.812;9.112;2023-05-24T11:41:59;15.50;99.90
6810;DHT22;3443;48.812;9.112;2023-05-24T11:44:28;15.40;99.90
6810;DHT22;3443;48.812;9.112;2023-05-24T11:46:58;15.60;99.90
6810;DHT22;3443;48.812;9.112;2023-05-24T11:49:24;15.90;99.90
6810;DHT22;3443;48.812;9.112;2023-05-24T11:51:56;16.10;99.90
6810;DHT22;3443;48.812;9.112;2023-05-24T11:54:26;16.20;99.90
6810;DHT22;3443;48.812;9.112;2023-05-24T11:56:52;16.10;99.90
6810;DHT22;3443;48.812;9.112;2023-05-24T11:59:26;15.60;99.90
6810;DHT22;3443;48.812;9.112;2023-05-24T12:02:02;15.60;99.90
6810;DHT22;3443;48.812;9.112;2023-05-24T12:04:29;15.20;99.90
6810;DHT22;3443;48.812;9.112;2023-05-24T12:06:55;15.10;99.90
6810;DHT22;3443;48.812;9.112;2023-05-24T12:09:21;15.40;99.90
6810;DHT22;3443;48.812;9.112;2023-05-24T12:11:47;15.60;99.90
6810;DHT22;3443;48.812;9.112;2023-05-24T12:14:16;16.10;99.90
6810;DHT22;3443;48.812;9.112;2023-05-24T12:16:43;16.40;99.90
6810;DHT22;3443;48.812;9.112;2023-05-24T12:19:16;16.70;99.90
6810;DHT22;3443;48.812;9.112;2023-05-24T12:21:43;16.60;99.90
6810;DHT22;3443;48.812;9.112;2023-05-24T12:24:14;16.60;99.90
6810;DHT22;3443;48.812;9.112;2023-05-24T12:26:41;16.70;99.90
6810;DHT22;3443;48.812;9.112;2023-05-24T12:29:08;16.80;99.90
6810;DHT22;3443;48.812;9.112;2023-05-24T12:31:36;16.60;99.90
6810;DHT22;3443;48.812;9.112;2023-05-24T12:34:01;16.40;99.90
6810;DHT22;3443;48.812;9.112;2023-05-24T12:36:28;16.50;99.90
6810;DHT22;3443;48.812;9.112;2023-05-24T12:38:56;16.40;99.90
6810;DHT22;3443;48.812;9.112;2023-05-24T12:41:22;16.20;99.90
6810;DHT22;3443;48.812;9.112;2023-05-24T12:43:50;16.40;99.90
6810;DHT22;3443;48.812;9.112;2023-05-24T12:46:16;16.70;99.90
6810;DHT22;3443;48.812;9.112;2023-05-24T12:51:08;17.30;99.90
6810;DHT22;3443;48.812;9.112;2023-05-24T13:00:53;16.70;99.90
6810;DHT22;3443;48.812;9.112;2023-05-24T13:03:18;16.60;99.90
6810;DHT22;3443;48.812;9.112;2023-05-24T13:05:44;16.40;99.90
6810;DHT22;3443;48.812;9.112;2023-05-24T13:08:11;16.50;99.90
6810;DHT22;3443;48.812;9.112;2023-05-24T13:10:38;17.00;99.90
6810;DHT22;3443;48.812;9.112;2023-05-24T13:13:03;17.20;99.90
6810;DHT22;3443;48.812;9.112;2023-05-24T13:15:29;17.40;99.90
6810;DHT22;3443;48.812;9.112;2023-05-24T13:17:55;17.80;99.90
6810;DHT22;3443;48.812;9.112;2023-05-24T13:20:20;17.50;99.90
6810;DHT22;3443;48.812;9.112;2023-05-24T13:22:46;17.10;99.90
6810;DHT22;3443;48.812;9.112;2023-05-24T13:25:12;17.00;99.90
6810;DHT22;3443;48.812;9.112;2023-05-24T13:27:38;17.20;99.90
6810;DHT22;3443;48.812;9.112;2023-05-24T13:30:04;17.30;99.90
6810;DHT22;3443;48.812;9.112;2023-05-24T13:32:30;17.30;99.90
6810;DHT22;3443;48.812;9.112;2023-05-24T13:34:56;17.80;99.90
6810;DHT22;3443;48.812;9.112;2023-05-24T13:37:22;17.60;99.90
6810;DHT22;3443;48.812;9.112;2023-05-24T13:39:48;17.40;99.90
6810;DHT22;3443;48.812;9.112;2023-05-24T13:42:14;17.00;99.90
6810;DHT22;3443;48.812;9.112;2023-05-24T13:44:40;16.90;99.90
6810;DHT22;3443;48.812;9.112;2023-05-24T13:47:06;17.20;99.90
6810;DHT22;3443;48.812;9.112;2023-05-24T13:49:33;17.30;99.90
6810;DHT22;3443;48.812;9.112;2023-05-24T13:51:58;17.90;99.90
6810;DHT22;3443;48.812;9.112;2023-05-24T13:54:24;18.20;99.90
6810;DHT22;3443;48.812;9.112;2023-05-24T13:56:50;18.20;99.90
6810;DHT22;3443;48.812;9.112;2023-05-24T13:59:16;17.40;99.90
6810;DHT22;3443;48.812;9.112;2023-05-24T14:01:43;17.00;99.90
6810;DHT22;3443;48.812;9.112;2023-05-24T14:04:09;16.50;99.90
6810;DHT22;3443;48.812;9.112;2023-05-24T14:06:35;16.50;99.90
6810;DHT22;3443;48.812;9.112;2023-05-24T14:09:04;16.60;99.90
6810;DHT22;3443;48.812;9.112;2023-05-24T14:11:33;16.80;99.90
6810;DHT22;3443;48.812;9.112;2023-05-24T14:14:00;17.30;99.90
6810;DHT22;3443;48.812;9.112;2023-05-24T14:16:26;17.50;99.90
6810;DHT22;3443;48.812;9.112;2023-05-24T14:18:52;17.50;99.90
6810;DHT22;3443;48.812;9.112;2023-05-24T14:28:37;17.40;99.90
6810;DHT22;3443;48.812;9.112;2023-05-24T14:31:03;16.80;99.90
6810;DHT22;3443;48.812;9.112;2023-05-24T14:33:28;16.50;99.90
6810;DHT22;3443;48.812;9.112;2023-05-24T14:35:54;16.50;99.90
6810;DHT22;3443;48.812;9.112;2023-05-24T14:38:20;16.80;99.90
6810;DHT22;3443;48.812;9.112;2023-05-24T14:40:48;17.00;99.90
6810;DHT22;3443;48.812;9.112;2023-05-24T14:43:13;17.40;99.90
6810;DHT22;3443;48.812;9.112;2023-05-24T14:48:06;18.10;99.90
6810;DHT22;3443;48.812;9.112;2023-05-24T14:55:33;17.50;98.30
6810;DHT22;3443;48.812;9.112;2023-05-24T14:57:58;17.30;99.60
6810;DHT22;3443;48.812;9.112;2023-05-24T15:00:24;17.10;99.90
6810;DHT22;3443;48.812;9.112;2023-05-24T15:05:16;17.40;99.90
6810;DHT22;3443;48.812;9.112;2023-05-24T15:07:42;17.40;99.90
6810;DHT22;3443;48.812;9.112;2023-05-24T15:17:25;17.80;99.90
6810;DHT22;3443;48.812;9.112;2023-05-24T15:32:02;16.80;99.30
6810;DHT22;3443;48.812;9.112;2023-05-24T15:34:28;17.00;98.90
6810;DHT22;3443;48.812;9.112;2023-05-24T15:36:53;17.00;98.20
6810;DHT22;3443;48.812;9.112;2023-05-24T15:39:19;16.90;97.90
6810;DHT22;3443;48.812;9.112;2023-05-24T15:41:45;16.60;99.40
6810;DHT22;3443;48.812;9.112;2023-05-24T15:44:11;16.40;98.40
6810;DHT22;3443;48.812;9.112;2023-05-24T15:46:38;16.30;99.90
6810;DHT22;3443;48.812;9.112;2023-05-24T15:49:04;16.10;99.60
6810;DHT22;3443;48.812;9.112;2023-05-24T15:51:29;16.10;99.90
6810;DHT22;3443;48.812;9.112;2023-05-24T15:53:55;16.40;99.90
6810;DHT22;3443;48.812;9.112;2023-05-24T15:56:21;16.50;99.90
6810;DHT22;3443;48.812;9.112;2023-05-24T15:58:47;16.60;99.90
6810;DHT22;3443;48.812;9.112;2023-05-24T16:01:13;16.70;99.90
6810;DHT22;3443;48.812;9.112;2023-05-24T16:03:38;16.60;99.40
6810;DHT22;3443;48.812;9.112;2023-05-24T16:06:05;16.60;99.90
6810;DHT22;3443;48.812;9.112;2023-05-24T16:08:32;16.50;99.90
6810;DHT22;3443;48.812;9.112;2023-05-24T16:10:57;16.20;99.90
6810;DHT22;3443;48.812;9.112;2023-05-24T16:13:23;16.00;99.90
6810;DHT22;3443;48.812;9.112;2023-05-24T16:15:48;15.80;99.90
6810;DHT22;3443;48.812;9.112;2023-05-24T16:18:19;15.70;99.90
6810;DHT22;3443;48.812;9.112;2023-05-24T16:20:49;15.90;99.90
6810;DHT22;3443;48.812;9.112;2023-05-24T16:23:15;16.00;99.90
6810;DHT22;3443;48.812;9.112;2023-05-24T16:25:42;16.10;99.90
6810;DHT22;3443;48.812;9.112;2023-05-24T16:28:08;16.20;99.90
6810;DHT22;3443;48.812;9.112;2023-05-24T16:30:33;16.10;99.90
6810;DHT22;3443;48.812;9.112;2023-05-24T16:33:01;16.00;99.90
6810;DHT22;3443;48.812;9.112;2023-05-24T16:35:26;15.80;99.90
6810;DHT22;3443;48.812;9.112;2023-05-24T16:37:52;15.80;99.90
6810;DHT22;3443;48.812;9.112;2023-05-24T16:40:17;15.90;99.90
6810;DHT22;3443;48.812;9.112;2023-05-24T16:42:43;15.90;99.90
6810;DHT22;3443;48.812;9.112;2023-05-24T16:45:09;16.10;99.90
6810;DHT22;3443;48.812;9.112;2023-05-24T16:47:34;16.20;99.90
6810;DHT22;3443;48.812;9.112;2023-05-24T16:50:00;16.30;99.90
6810;DHT22;3443;48.812;9.112;2023-05-24T16:52:25;16.30;99.90
6810;DHT22;3443;48.812;9.112;2023-05-24T16:54:51;16.20;99.90
6810;DHT22;3443;48.812;9.112;2023-05-24T16:57:16;16.00;99.90
6810;DHT22;3443;48.812;9.112;2023-05-24T16:59:42;16.00;99.90
6810;DHT22;3443;48.812;9.112;2023-05-24T17:02:09;15.80;99.90
6810;DHT22;3443;48.812;9.112;2023-05-24T17:04:35;15.70;99.90
6810;DHT22;3443;48.812;9.112;2023-05-24T17:07:01;15.70;99.90
6810;DHT22;3443;48.812;9.112;2023-05-24T17:09:26;15.60;99.90
6810;DHT22;3443;48.812;9.112;2023-05-24T17:11:52;15.50;99.90
6810;DHT22;3443;48.812;9.112;2023-05-24T17:14:17;15.50;99.90
6810;DHT22;3443;48.812;9.112;2023-05-24T17:16:43;15.40;99.90